sensor_id;sensor_type;location;lat;lon;timestamp;P1;durP1;ratioP1;P2;durP2;ratioP2
54139;SDS011;40046;53.254;5.900;2023-06-22T00:02:03;19.33;;;17.38;;
54139;SDS011;40046;53.254;5.900;2023-06-22T00:04:30;19.77;;;17.48;;
54139;SDS011;40046;53.254;5.900;2023-06-22T00:06:56;19.02;;;16.90;;
54139;SDS011;40046;53.254;5.900;2023-06-22T00:09:22;18.20;;;16.27;;
54139;SDS011;40046;53.254;5.900;2023-06-22T00:11:48;18.05;;;16.00;;
54139;SDS011;40046;53.254;5.900;2023-06-22T00:14:14;19.27;;;17.20;;
54139;SDS011;40046;53.254;5.900;2023-06-22T00:16:40;18.73;;;16.00;;
54139;SDS011;40046;53.254;5.900;2023-06-22T00:19:07;19.88;;;17.77;;
54139;SDS011;40046;53.254;5.900;2023-06-22T00:21:36;22.73;;;17.80;;
54139;SDS011;40046;53.254;5.900;2023-06-22T00:24:03;22.48;;;19.90;;
54139;SDS011;40046;53.254;5.900;2023-06-22T00:26:29;21.60;;;18.70;;
54139;SDS011;40046;53.254;5.900;2023-06-22T00:28:56;16.85;;;15.05;;
54139;SDS011;40046;53.254;5.900;2023-06-22T00:31:22;23.50;;;17.23;;
54139;SDS011;40046;53.254;5.900;2023-06-22T00:33:48;16.35;;;14.48;;
54139;SDS011;40046;53.254;5.900;2023-06-22T00:36:16;18.80;;;17.05;;
54139;SDS011;40046;53.254;5.900;2023-06-22T00:38:43;27.27;;;16.60;;
54139;SDS011;40046;53.254;5.900;2023-06-22T00:41:09;46.28;;;17.42;;
54139;SDS011;40046;53.254;5.900;2023-06-22T00:43:35;49.25;;;17.70;;
54139;SDS011;40046;53.254;5.900;2023-06-22T00:46:02;26.08;;;17.13;;
54139;SDS011;40046;53.254;5.900;2023-06-22T00:48:28;27.77;;;18.35;;
54139;SDS011;40046;53.254;5.900;2023-06-22T00:50:54;28.90;;;16.05;;
54139;SDS011;40046;53.254;5.900;2023-06-22T00:53:22;74.72;;;16.25;;
54139;SDS011;40046;53.254;5.900;2023-06-22T00:55:48;48.75;;;17.45;;
54139;SDS011;40046;53.254;5.900;2023-06-22T00:58:18;45.65;;;17.10;;
54139;SDS011;40046;53.254;5.900;2023-06-22T01:00:47;63.88;;;16.88;;
54139;SDS011;40046;53.254;5.900;2023-06-22T01:03:14;31.05;;;17.20;;
54139;SDS011;40046;53.254;5.900;2023-06-22T01:05:42;17.52;;;15.57;;
54139;SDS011;40046;53.254;5.900;2023-06-22T01:08:16;48.47;;;15.95;;
54139;SDS011;40046;53.254;5.900;2023-06-22T01:13:18;44.75;;;14.85;;
54139;SDS011;40046;53.254;5.900;2023-06-22T01:16:02;28.27;;;14.77;;
54139;SDS011;40046;53.254;5.900;2023-06-22T01:18:31;16.33;;;14.82;;
54139;SDS011;40046;53.254;5.900;2023-06-22T01:20:59;20.65;;;15.38;;
54139;SDS011;40046;53.254;5.900;2023-06-22T01:28:49;17.52;;;16.00;;
54139;SDS011;40046;53.254;5.900;2023-06-22T01:31:16;16.80;;;15.15;;
54139;SDS011;40046;53.254;5.900;2023-06-22T01:33:44;17.60;;;16.00;;
54139;SDS011;40046;53.254;5.900;2023-06-22T01:36:12;16.23;;;14.80;;
54139;SDS011;40046;53.254;5.900;2023-06-22T01:38:39;19.23;;;15.25;;
54139;SDS011;40046;53.254;5.900;2023-06-22T01:41:05;16.67;;;15.18;;
54139;SDS011;40046;53.254;5.900;2023-06-22T01:43:32;17.88;;;16.20;;
54139;SDS011;40046;53.254;5.900;2023-06-22T01:45:59;17.45;;;15.23;;
54139;SDS011;40046;53.254;5.900;2023-06-22T01:48:25;15.85;;;14.38;;
54139;SDS011;40046;53.254;5.900;2023-06-22T01:50:52;15.57;;;14.05;;
54139;SDS011;40046;53.254;5.900;2023-06-22T01:53:22;14.85;;;13.55;;
54139;SDS011;40046;53.254;5.900;2023-06-22T01:55:50;14.93;;;13.63;;
54139;SDS011;40046;53.254;5.900;2023-06-22T01:58:17;14.55;;;12.98;;
54139;SDS011;40046;53.254;5.900;2023-06-22T02:00:48;16.70;;;14.98;;
54139;SDS011;40046;53.254;5.900;2023-06-22T02:03:17;33.83;;;15.85;;
54139;SDS011;40046;53.254;5.900;2023-06-22T02:05:46;54.95;;;16.10;;
54139;SDS011;40046;53.254;5.900;2023-06-22T02:08:15;37.95;;;16.02;;
54139;SDS011;40046;53.254;5.900;2023-06-22T02:10:43;37.72;;;17.83;;
54139;SDS011;40046;53.254;5.900;2023-06-22T02:13:11;24.17;;;16.85;;
54139;SDS011;40046;53.254;5.900;2023-06-22T02:15:39;20.33;;;17.13;;
54139;SDS011;40046;53.254;5.900;2023-06-22T02:18:05;30.50;;;15.80;;
54139;SDS011;40046;53.254;5.900;2023-06-22T02:20:31;16.45;;;15.02;;
54139;SDS011;40046;53.254;5.900;2023-06-22T02:23:06;17.17;;;15.39;;
54139;SDS011;40046;53.254;5.900;2023-06-22T02:25:34;19.10;;;15.68;;
54139;SDS011;40046;53.254;5.900;2023-06-22T02:28:01;21.60;;;15.88;;
54139;SDS011;40046;53.254;5.900;2023-06-22T02:30:27;14.90;;;13.68;;
54139;SDS011;40046;53.254;5.900;2023-06-22T02:32:53;18.45;;;13.55;;
54139;SDS011;40046;53.254;5.900;2023-06-22T02:35:27;14.45;;;13.25;;
54139;SDS011;40046;53.254;5.900;2023-06-22T02:37:59;16.37;;;14.87;;
54139;SDS011;40046;53.254;5.900;2023-06-22T02:40:26;34.80;;;15.23;;
54139;SDS011;40046;53.254;5.900;2023-06-22T02:42:52;35.90;;;16.92;;
54139;SDS011;40046;53.254;5.900;2023-06-22T02:45:18;31.63;;;14.95;;
54139;SDS011;40046;53.254;5.900;2023-06-22T02:47:45;28.65;;;16.13;;
54139;SDS011;40046;53.254;5.900;2023-06-22T02:50:13;19.60;;;16.95;;
54139;SDS011;40046;53.254;5.900;2023-06-22T02:52:39;84.43;;;16.73;;
54139;SDS011;40046;53.254;5.900;2023-06-22T02:55:06;70.15;;;18.13;;
54139;SDS011;40046;53.254;5.900;2023-06-22T02:57:34;43.67;;;18.33;;
54139;SDS011;40046;53.254;5.900;2023-06-22T03:00:01;73.88;;;19.38;;
54139;SDS011;40046;53.254;5.900;2023-06-22T03:02:29;37.17;;;19.92;;
54139;SDS011;40046;53.254;5.900;2023-06-22T03:04:55;41.30;;;20.80;;
54139;SDS011;40046;53.254;5.900;2023-06-22T03:07:21;30.17;;;19.25;;
54139;SDS011;40046;53.254;5.900;2023-06-22T03:09:49;21.23;;;18.38;;
54139;SDS011;40046;53.254;5.900;2023-06-22T03:12:16;40.38;;;17.42;;
54139;SDS011;40046;53.254;5.900;2023-06-22T03:14:49;69.55;;;18.50;;
54139;SDS011;40046;53.254;5.900;2023-06-22T03:17:16;58.78;;;17.25;;
54139;SDS011;40046;53.254;5.900;2023-06-22T03:19:42;32.20;;;17.73;;
54139;SDS011;40046;53.254;5.900;2023-06-22T03:22:08;22.85;;;19.70;;
54139;SDS011;40046;53.254;5.900;2023-06-22T03:24:34;35.08;;;19.90;;
54139;SDS011;40046;53.254;5.900;2023-06-22T03:27:02;46.20;;;19.10;;
54139;SDS011;40046;53.254;5.900;2023-06-22T03:29:30;30.35;;;19.08;;
54139;SDS011;40046;53.254;5.900;2023-06-22T03:31:57;34.55;;;21.25;;
54139;SDS011;40046;53.254;5.900;2023-06-22T03:34:23;25.58;;;21.15;;
54139;SDS011;40046;53.254;5.900;2023-06-22T03:36:51;35.10;;;17.58;;
54139;SDS011;40046;53.254;5.900;2023-06-22T03:39:18;39.83;;;18.13;;
54139;SDS011;40046;53.254;5.900;2023-06-22T03:41:45;33.72;;;17.27;;
54139;SDS011;40046;53.254;5.900;2023-06-22T03:44:11;21.48;;;19.42;;
54139;SDS011;40046;53.254;5.900;2023-06-22T03:46:38;23.52;;;21.52;;
54139;SDS011;40046;53.254;5.900;2023-06-22T03:49:04;22.75;;;20.73;;
54139;SDS011;40046;53.254;5.900;2023-06-22T03:51:30;20.35;;;18.58;;
54139;SDS011;40046;53.254;5.900;2023-06-22T03:53:56;17.83;;;16.33;;
54139;SDS011;40046;53.254;5.900;2023-06-22T03:56:23;17.27;;;15.75;;
54139;SDS011;40046;53.254;5.900;2023-06-22T03:58:49;17.67;;;16.17;;
54139;SDS011;40046;53.254;5.900;2023-06-22T04:01:16;18.15;;;16.55;;
54139;SDS011;40046;53.254;5.900;2023-06-22T04:03:42;18.38;;;16.88;;
54139;SDS011;40046;53.254;5.900;2023-06-22T04:06:08;18.02;;;16.63;;
54139;SDS011;40046;53.254;5.900;2023-06-22T04:08:34;17.33;;;15.98;;
54139;SDS011;40046;53.254;5.900;2023-06-22T04:11:01;15.85;;;14.45;;
54139;SDS011;40046;53.254;5.900;2023-06-22T04:13:27;18.98;;;16.52;;
54139;SDS011;40046;53.254;5.900;2023-06-22T04:15:53;16.88;;;15.38;;
54139;SDS011;40046;53.254;5.900;2023-06-22T04:18:19;19.05;;;17.45;;
54139;SDS011;40046;53.254;5.900;2023-06-22T04:20:45;18.40;;;16.70;;
54139;SDS011;40046;53.254;5.900;2023-06-22T04:23:12;28.98;;;19.88;;
54139;SDS011;40046;53.254;5.900;2023-06-22T04:25:39;22.02;;;19.75;;
54139;SDS011;40046;53.254;5.900;2023-06-22T04:28:05;30.05;;;26.90;;
54139;SDS011;40046;53.254;5.900;2023-06-22T04:30:37;30.52;;;27.30;;
54139;SDS011;40046;53.254;5.900;2023-06-22T04:33:14;31.58;;;28.25;;
54139;SDS011;40046;53.254;5.900;2023-06-22T04:35:41;30.90;;;27.45;;
54139;SDS011;40046;53.254;5.900;2023-06-22T04:38:08;48.80;;;28.17;;
54139;SDS011;40046;53.254;5.900;2023-06-22T04:40:34;35.35;;;24.58;;
54139;SDS011;40046;53.254;5.900;2023-06-22T04:43:01;29.60;;;23.50;;
54139;SDS011;40046;53.254;5.900;2023-06-22T04:45:28;26.75;;;24.08;;
54139;SDS011;40046;53.254;5.900;2023-06-22T04:47:57;27.23;;;24.58;;
54139;SDS011;40046;53.254;5.900;2023-06-22T04:50:23;27.67;;;24.85;;
54139;SDS011;40046;53.254;5.900;2023-06-22T04:52:49;25.90;;;23.27;;
54139;SDS011;40046;53.254;5.900;2023-06-22T04:55:16;25.30;;;22.75;;
54139;SDS011;40046;53.254;5.900;2023-06-22T04:57:44;23.83;;;21.40;;
54139;SDS011;40046;53.254;5.900;2023-06-22T05:00:17;22.20;;;20.00;;
54139;SDS011;40046;53.254;5.900;2023-06-22T05:02:45;21.70;;;19.83;;
54139;SDS011;40046;53.254;5.900;2023-06-22T05:05:12;21.02;;;18.98;;
54139;SDS011;40046;53.254;5.900;2023-06-22T05:07:42;22.60;;;20.40;;
54139;SDS011;40046;53.254;5.900;2023-06-22T05:10:09;20.77;;;18.77;;
54139;SDS011;40046;53.254;5.900;2023-06-22T05:12:37;21.67;;;19.33;;
54139;SDS011;40046;53.254;5.900;2023-06-22T05:15:03;23.45;;;21.15;;
54139;SDS011;40046;53.254;5.900;2023-06-22T05:17:29;21.50;;;19.17;;
54139;SDS011;40046;53.254;5.900;2023-06-22T05:19:55;22.30;;;20.13;;
54139;SDS011;40046;53.254;5.900;2023-06-22T05:22:22;23.65;;;20.50;;
54139;SDS011;40046;53.254;5.900;2023-06-22T05:24:48;21.10;;;19.10;;
54139;SDS011;40046;53.254;5.900;2023-06-22T05:27:14;21.02;;;19.08;;
54139;SDS011;40046;53.254;5.900;2023-06-22T05:29:40;22.77;;;20.67;;
54139;SDS011;40046;53.254;5.900;2023-06-22T05:32:08;19.95;;;18.02;;
54139;SDS011;40046;53.254;5.900;2023-06-22T05:34:34;20.38;;;18.55;;
54139;SDS011;40046;53.254;5.900;2023-06-22T05:37:00;20.77;;;18.67;;
54139;SDS011;40046;53.254;5.900;2023-06-22T05:39:26;20.05;;;18.10;;
54139;SDS011;40046;53.254;5.900;2023-06-22T05:41:52;21.27;;;19.38;;
54139;SDS011;40046;53.254;5.900;2023-06-22T05:44:19;20.60;;;18.63;;
54139;SDS011;40046;53.254;5.900;2023-06-22T05:46:45;21.00;;;19.00;;
54139;SDS011;40046;53.254;5.900;2023-06-22T05:49:13;22.27;;;20.10;;
54139;SDS011;40046;53.254;5.900;2023-06-22T05:51:40;25.98;;;23.27;;
54139;SDS011;40046;53.254;5.900;2023-06-22T05:54:06;25.67;;;23.13;;
54139;SDS011;40046;53.254;5.900;2023-06-22T05:56:34;23.85;;;21.70;;
54139;SDS011;40046;53.254;5.900;2023-06-22T05:59:00;25.25;;;22.88;;
54139;SDS011;40046;53.254;5.900;2023-06-22T06:01:26;24.75;;;22.27;;
54139;SDS011;40046;53.254;5.900;2023-06-22T06:03:52;26.25;;;23.75;;
54139;SDS011;40046;53.254;5.900;2023-06-22T06:06:18;26.20;;;23.55;;
54139;SDS011;40046;53.254;5.900;2023-06-22T06:08:46;26.83;;;23.98;;
54139;SDS011;40046;53.254;5.900;2023-06-22T06:11:12;24.63;;;21.98;;
54139;SDS011;40046;53.254;5.900;2023-06-22T06:13:39;26.98;;;24.27;;
54139;SDS011;40046;53.254;5.900;2023-06-22T06:16:05;27.10;;;24.40;;
54139;SDS011;40046;53.254;5.900;2023-06-22T06:18:31;25.27;;;22.77;;
54139;SDS011;40046;53.254;5.900;2023-06-22T06:20:58;25.88;;;23.35;;
54139;SDS011;40046;53.254;5.900;2023-06-22T06:23:24;24.80;;;22.40;;
54139;SDS011;40046;53.254;5.900;2023-06-22T06:25:50;25.52;;;22.83;;
54139;SDS011;40046;53.254;5.900;2023-06-22T06:28:16;24.67;;;22.15;;
54139;SDS011;40046;53.254;5.900;2023-06-22T06:30:42;26.88;;;24.30;;
54139;SDS011;40046;53.254;5.900;2023-06-22T06:33:08;25.25;;;22.50;;
54139;SDS011;40046;53.254;5.900;2023-06-22T06:35:35;25.85;;;23.23;;
54139;SDS011;40046;53.254;5.900;2023-06-22T06:38:01;25.15;;;22.55;;
54139;SDS011;40046;53.254;5.900;2023-06-22T06:40:27;23.42;;;20.95;;
54139;SDS011;40046;53.254;5.900;2023-06-22T06:42:53;25.83;;;22.02;;
54139;SDS011;40046;53.254;5.900;2023-06-22T06:45:21;23.20;;;20.75;;
54139;SDS011;40046;53.254;5.900;2023-06-22T06:47:48;24.75;;;22.33;;
54139;SDS011;40046;53.254;5.900;2023-06-22T06:50:15;24.20;;;21.83;;
54139;SDS011;40046;53.254;5.900;2023-06-22T06:52:41;25.05;;;22.55;;
54139;SDS011;40046;53.254;5.900;2023-06-22T06:55:08;24.08;;;21.73;;
54139;SDS011;40046;53.254;5.900;2023-06-22T06:57:40;24.05;;;21.33;;
54139;SDS011;40046;53.254;5.900;2023-06-22T07:00:07;23.77;;;21.40;;
54139;SDS011;40046;53.254;5.900;2023-06-22T07:02:38;25.00;;;22.52;;
54139;SDS011;40046;53.254;5.900;2023-06-22T07:05:07;25.40;;;22.80;;
54139;SDS011;40046;53.254;5.900;2023-06-22T07:07:33;23.23;;;20.48;;
54139;SDS011;40046;53.254;5.900;2023-06-22T07:10:00;22.48;;;19.52;;
54139;SDS011;40046;53.254;5.900;2023-06-22T07:12:26;24.80;;;22.50;;
54139;SDS011;40046;53.254;5.900;2023-06-22T07:14:52;24.13;;;21.63;;
54139;SDS011;40046;53.254;5.900;2023-06-22T07:17:19;25.10;;;22.75;;
54139;SDS011;40046;53.254;5.900;2023-06-22T07:19:45;24.50;;;22.13;;
54139;SDS011;40046;53.254;5.900;2023-06-22T07:22:11;25.20;;;22.85;;
54139;SDS011;40046;53.254;5.900;2023-06-22T07:24:37;25.42;;;22.92;;
54139;SDS011;40046;53.254;5.900;2023-06-22T07:27:03;24.92;;;22.45;;
54139;SDS011;40046;53.254;5.900;2023-06-22T07:29:31;24.23;;;21.73;;
54139;SDS011;40046;53.254;5.900;2023-06-22T07:31:58;26.27;;;23.77;;
54139;SDS011;40046;53.254;5.900;2023-06-22T07:34:25;25.88;;;23.25;;
54139;SDS011;40046;53.254;5.900;2023-06-22T07:36:52;25.20;;;22.77;;
54139;SDS011;40046;53.254;5.900;2023-06-22T07:39:18;24.52;;;22.13;;
54139;SDS011;40046;53.254;5.900;2023-06-22T07:41:47;25.92;;;23.33;;
54139;SDS011;40046;53.254;5.900;2023-06-22T07:44:13;25.52;;;22.98;;
54139;SDS011;40046;53.254;5.900;2023-06-22T07:46:39;24.90;;;22.20;;
54139;SDS011;40046;53.254;5.900;2023-06-22T07:49:06;24.02;;;21.67;;
54139;SDS011;40046;53.254;5.900;2023-06-22T07:51:33;23.30;;;20.90;;
54139;SDS011;40046;53.254;5.900;2023-06-22T07:53:59;26.30;;;23.38;;
54139;SDS011;40046;53.254;5.900;2023-06-22T07:56:25;23.45;;;20.48;;
54139;SDS011;40046;53.254;5.900;2023-06-22T07:58:51;22.75;;;20.45;;
54139;SDS011;40046;53.254;5.900;2023-06-22T08:01:18;22.80;;;20.40;;
54139;SDS011;40046;53.254;5.900;2023-06-22T08:03:49;23.63;;;21.33;;
54139;SDS011;40046;53.254;5.900;2023-06-22T08:06:15;25.23;;;22.55;;
54139;SDS011;40046;53.254;5.900;2023-06-22T08:08:42;25.88;;;23.30;;
54139;SDS011;40046;53.254;5.900;2023-06-22T08:11:08;22.52;;;20.30;;
54139;SDS011;40046;53.254;5.900;2023-06-22T08:13:34;24.52;;;20.55;;
54139;SDS011;40046;53.254;5.900;2023-06-22T08:16:01;23.25;;;20.95;;
54139;SDS011;40046;53.254;5.900;2023-06-22T08:18:27;23.98;;;21.45;;
54139;SDS011;40046;53.254;5.900;2023-06-22T08:20:53;24.77;;;22.17;;
54139;SDS011;40046;53.254;5.900;2023-06-22T08:23:20;23.80;;;21.27;;
54139;SDS011;40046;53.254;5.900;2023-06-22T08:25:46;22.60;;;20.30;;
54139;SDS011;40046;53.254;5.900;2023-06-22T08:28:13;17.10;;;15.38;;
54139;SDS011;40046;53.254;5.900;2023-06-22T08:30:39;19.33;;;17.38;;
54139;SDS011;40046;53.254;5.900;2023-06-22T08:33:05;19.45;;;17.45;;
54139;SDS011;40046;53.254;5.900;2023-06-22T08:35:31;20.58;;;18.30;;
54139;SDS011;40046;53.254;5.900;2023-06-22T08:37:57;19.67;;;17.65;;
54139;SDS011;40046;53.254;5.900;2023-06-22T08:40:25;18.23;;;16.52;;
54139;SDS011;40046;53.254;5.900;2023-06-22T08:42:51;18.70;;;16.58;;
54139;SDS011;40046;53.254;5.900;2023-06-22T08:45:17;17.17;;;15.48;;
54139;SDS011;40046;53.254;5.900;2023-06-22T08:47:43;16.15;;;14.45;;
54139;SDS011;40046;53.254;5.900;2023-06-22T08:50:10;15.23;;;13.73;;
54139;SDS011;40046;53.254;5.900;2023-06-22T08:52:36;16.92;;;13.90;;
54139;SDS011;40046;53.254;5.900;2023-06-22T08:55:03;16.70;;;14.05;;
54139;SDS011;40046;53.254;5.900;2023-06-22T08:57:30;16.67;;;15.00;;
54139;SDS011;40046;53.254;5.900;2023-06-22T08:59:57;21.10;;;14.15;;
54139;SDS011;40046;53.254;5.900;2023-06-22T09:02:24;15.18;;;13.55;;
54139;SDS011;40046;53.254;5.900;2023-06-22T09:04:51;18.02;;;12.85;;
54139;SDS011;40046;53.254;5.900;2023-06-22T09:07:21;13.18;;;11.88;;
54139;SDS011;40046;53.254;5.900;2023-06-22T09:09:49;15.55;;;12.32;;
54139;SDS011;40046;53.254;5.900;2023-06-22T09:12:16;14.88;;;10.68;;
54139;SDS011;40046;53.254;5.900;2023-06-22T09:14:42;12.70;;;10.70;;
54139;SDS011;40046;53.254;5.900;2023-06-22T09:17:08;13.35;;;11.95;;
54139;SDS011;40046;53.254;5.900;2023-06-22T09:19:34;13.90;;;12.50;;
54139;SDS011;40046;53.254;5.900;2023-06-22T09:22:00;14.73;;;13.13;;
54139;SDS011;40046;53.254;5.900;2023-06-22T09:24:27;16.48;;;14.57;;
54139;SDS011;40046;53.254;5.900;2023-06-22T09:26:53;14.88;;;13.20;;
54139;SDS011;40046;53.254;5.900;2023-06-22T09:29:19;15.77;;;13.73;;
54139;SDS011;40046;53.254;5.900;2023-06-22T09:31:45;14.48;;;12.98;;
54139;SDS011;40046;53.254;5.900;2023-06-22T09:34:11;12.57;;;11.27;;
54139;SDS011;40046;53.254;5.900;2023-06-22T09:36:37;13.30;;;12.00;;
54139;SDS011;40046;53.254;5.900;2023-06-22T09:39:05;15.82;;;13.07;;
54139;SDS011;40046;53.254;5.900;2023-06-22T09:41:31;15.25;;;13.02;;
54139;SDS011;40046;53.254;5.900;2023-06-22T09:43:58;13.18;;;11.77;;
54139;SDS011;40046;53.254;5.900;2023-06-22T09:46:24;11.80;;;10.20;;
54139;SDS011;40046;53.254;5.900;2023-06-22T09:48:50;12.25;;;10.85;;
54139;SDS011;40046;53.254;5.900;2023-06-22T09:51:16;11.57;;;10.32;;
54139;SDS011;40046;53.254;5.900;2023-06-22T09:53:45;10.60;;;9.23;;
54139;SDS011;40046;53.254;5.900;2023-06-22T09:56:11;9.48;;;8.27;;
54139;SDS011;40046;53.254;5.900;2023-06-22T09:58:43;13.25;;;8.57;;
54139;SDS011;40046;53.254;5.900;2023-06-22T10:01:10;9.45;;;8.18;;
54139;SDS011;40046;53.254;5.900;2023-06-22T10:03:36;11.45;;;7.50;;
54139;SDS011;40046;53.254;5.900;2023-06-22T10:06:03;9.00;;;7.25;;
54139;SDS011;40046;53.254;5.900;2023-06-22T10:08:29;11.88;;;8.95;;
54139;SDS011;40046;53.254;5.900;2023-06-22T10:10:55;9.90;;;7.75;;
54139;SDS011;40046;53.254;5.900;2023-06-22T10:13:21;8.43;;;6.45;;
54139;SDS011;40046;53.254;5.900;2023-06-22T10:15:48;7.80;;;5.60;;
54139;SDS011;40046;53.254;5.900;2023-06-22T10:18:16;8.10;;;6.93;;
54139;SDS011;40046;53.254;5.900;2023-06-22T10:20:43;11.45;;;8.02;;
54139;SDS011;40046;53.254;5.900;2023-06-22T10:23:09;11.23;;;7.18;;
54139;SDS011;40046;53.254;5.900;2023-06-22T10:25:35;8.10;;;6.78;;
54139;SDS011;40046;53.254;5.900;2023-06-22T10:28:01;13.00;;;7.90;;
54139;SDS011;40046;53.254;5.900;2023-06-22T10:30:27;9.30;;;8.02;;
54139;SDS011;40046;53.254;5.900;2023-06-22T10:32:54;12.50;;;8.73;;
54139;SDS011;40046;53.254;5.900;2023-06-22T10:35:20;9.85;;;7.95;;
54139;SDS011;40046;53.254;5.900;2023-06-22T10:37:46;10.10;;;7.03;;
54139;SDS011;40046;53.254;5.900;2023-06-22T10:40:13;11.15;;;7.68;;
54139;SDS011;40046;53.254;5.900;2023-06-22T10:42:40;8.02;;;6.25;;
54139;SDS011;40046;53.254;5.900;2023-06-22T10:45:06;10.38;;;6.05;;
54139;SDS011;40046;53.254;5.900;2023-06-22T10:47:33;9.32;;;7.43;;
54139;SDS011;40046;53.254;5.900;2023-06-22T10:49:59;7.85;;;6.38;;
54139;SDS011;40046;53.254;5.900;2023-06-22T10:52:25;11.20;;;7.28;;
54139;SDS011;40046;53.254;5.900;2023-06-22T10:54:51;8.88;;;7.72;;
54139;SDS011;40046;53.254;5.900;2023-06-22T10:57:18;9.85;;;7.70;;
54139;SDS011;40046;53.254;5.900;2023-06-22T10:59:44;12.07;;;7.32;;
54139;SDS011;40046;53.254;5.900;2023-06-22T11:02:10;10.52;;;7.60;;
54139;SDS011;40046;53.254;5.900;2023-06-22T11:04:36;9.75;;;7.80;;
54139;SDS011;40046;53.254;5.900;2023-06-22T11:07:03;8.85;;;6.25;;
54139;SDS011;40046;53.254;5.900;2023-06-22T11:09:29;10.65;;;7.25;;
54139;SDS011;40046;53.254;5.900;2023-06-22T11:11:55;9.55;;;7.38;;
54139;SDS011;40046;53.254;5.900;2023-06-22T11:14:22;10.50;;;7.20;;
54139;SDS011;40046;53.254;5.900;2023-06-22T11:16:49;10.05;;;6.57;;
54139;SDS011;40046;53.254;5.900;2023-06-22T11:19:15;7.72;;;6.45;;
54139;SDS011;40046;53.254;5.900;2023-06-22T11:21:41;8.07;;;5.68;;
54139;SDS011;40046;53.254;5.900;2023-06-22T11:24:07;10.75;;;7.18;;
54139;SDS011;40046;53.254;5.900;2023-06-22T11:26:33;10.00;;;5.93;;
54139;SDS011;40046;53.254;5.900;2023-06-22T11:29:00;6.85;;;5.35;;
54139;SDS011;40046;53.254;5.900;2023-06-22T11:31:30;10.13;;;6.28;;
54139;SDS011;40046;53.254;5.900;2023-06-22T11:33:56;7.75;;;5.00;;
54139;SDS011;40046;53.254;5.900;2023-06-22T11:36:22;8.07;;;4.93;;
54139;SDS011;40046;53.254;5.900;2023-06-22T11:38:48;6.88;;;4.80;;
54139;SDS011;40046;53.254;5.900;2023-06-22T11:41:15;6.45;;;4.45;;
54139;SDS011;40046;53.254;5.900;2023-06-22T11:43:41;6.97;;;5.22;;
54139;SDS011;40046;53.254;5.900;2023-06-22T11:46:07;6.43;;;5.07;;
54139;SDS011;40046;53.254;5.900;2023-06-22T11:48:33;6.70;;;4.80;;
54139;SDS011;40046;53.254;5.900;2023-06-22T11:50:59;9.10;;;4.15;;
54139;SDS011;40046;53.254;5.900;2023-06-22T11:53:27;6.28;;;4.70;;
54139;SDS011;40046;53.254;5.900;2023-06-22T11:55:54;6.22;;;4.63;;
54139;SDS011;40046;53.254;5.900;2023-06-22T11:58:20;5.65;;;4.35;;
54139;SDS011;40046;53.254;5.900;2023-06-22T12:00:47;7.40;;;3.72;;
54139;SDS011;40046;53.254;5.900;2023-06-22T12:03:13;4.63;;;3.25;;
54139;SDS011;40046;53.254;5.900;2023-06-22T12:05:40;4.75;;;2.83;;
54139;SDS011;40046;53.254;5.900;2023-06-22T12:08:06;6.63;;;3.22;;
54139;SDS011;40046;53.254;5.900;2023-06-22T12:10:35;5.70;;;4.05;;
54139;SDS011;40046;53.254;5.900;2023-06-22T12:13:02;8.60;;;3.38;;
54139;SDS011;40046;53.254;5.900;2023-06-22T12:15:28;4.80;;;2.72;;
54139;SDS011;40046;53.254;5.900;2023-06-22T12:17:54;4.55;;;2.78;;
54139;SDS011;40046;53.254;5.900;2023-06-22T12:20:20;3.33;;;2.45;;
54139;SDS011;40046;53.254;5.900;2023-06-22T12:22:46;4.57;;;2.40;;
54139;SDS011;40046;53.254;5.900;2023-06-22T12:25:13;3.95;;;2.33;;
54139;SDS011;40046;53.254;5.900;2023-06-22T12:27:39;5.93;;;2.65;;
54139;SDS011;40046;53.254;5.900;2023-06-22T12:30:05;3.90;;;2.40;;
54139;SDS011;40046;53.254;5.900;2023-06-22T12:32:32;3.50;;;2.40;;
54139;SDS011;40046;53.254;5.900;2023-06-22T12:34:58;3.03;;;1.83;;
54139;SDS011;40046;53.254;5.900;2023-06-22T12:37:24;3.53;;;2.10;;
54139;SDS011;40046;53.254;5.900;2023-06-22T12:39:51;4.18;;;2.08;;
54139;SDS011;40046;53.254;5.900;2023-06-22T12:42:17;2.30;;;1.27;;
54139;SDS011;40046;53.254;5.900;2023-06-22T12:44:43;3.28;;;1.80;;
54139;SDS011;40046;53.254;5.900;2023-06-22T12:47:09;4.90;;;1.85;;
54139;SDS011;40046;53.254;5.900;2023-06-22T12:49:36;4.75;;;1.75;;
54139;SDS011;40046;53.254;5.900;2023-06-22T12:52:02;3.70;;;1.67;;
54139;SDS011;40046;53.254;5.900;2023-06-22T12:54:29;2.95;;;1.60;;
54139;SDS011;40046;53.254;5.900;2023-06-22T12:56:55;5.95;;;1.80;;
54139;SDS011;40046;53.254;5.900;2023-06-22T12:59:21;2.50;;;1.35;;
54139;SDS011;40046;53.254;5.900;2023-06-22T13:01:48;3.55;;;1.80;;
54139;SDS011;40046;53.254;5.900;2023-06-22T13:04:14;3.30;;;1.60;;
54139;SDS011;40046;53.254;5.900;2023-06-22T13:06:40;3.63;;;1.77;;
54139;SDS011;40046;53.254;5.900;2023-06-22T13:09:07;2.05;;;1.25;;
54139;SDS011;40046;53.254;5.900;2023-06-22T13:11:34;3.83;;;1.20;;
54139;SDS011;40046;53.254;5.900;2023-06-22T13:14:00;2.53;;;1.30;;
54139;SDS011;40046;53.254;5.900;2023-06-22T13:16:26;2.90;;;1.52;;
54139;SDS011;40046;53.254;5.900;2023-06-22T13:18:52;2.85;;;1.45;;
54139;SDS011;40046;53.254;5.900;2023-06-22T13:21:18;3.70;;;1.58;;
54139;SDS011;40046;53.254;5.900;2023-06-22T13:23:44;3.80;;;1.98;;
54139;SDS011;40046;53.254;5.900;2023-06-22T13:26:11;4.22;;;1.30;;
54139;SDS011;40046;53.254;5.900;2023-06-22T13:28:37;3.60;;;1.33;;
54139;SDS011;40046;53.254;5.900;2023-06-22T13:31:03;2.17;;;1.27;;
54139;SDS011;40046;53.254;5.900;2023-06-22T13:33:29;4.20;;;1.52;;
54139;SDS011;40046;53.254;5.900;2023-06-22T13:35:55;4.90;;;1.02;;
54139;SDS011;40046;53.254;5.900;2023-06-22T13:38:21;2.47;;;1.27;;
54139;SDS011;40046;53.254;5.900;2023-06-22T13:40:48;3.53;;;1.33;;
54139;SDS011;40046;53.254;5.900;2023-06-22T13:43:14;3.72;;;1.40;;
54139;SDS011;40046;53.254;5.900;2023-06-22T13:45:42;3.63;;;1.55;;
54139;SDS011;40046;53.254;5.900;2023-06-22T13:48:09;2.33;;;1.20;;
54139;SDS011;40046;53.254;5.900;2023-06-22T13:50:35;3.42;;;1.40;;
54139;SDS011;40046;53.254;5.900;2023-06-22T13:53:01;2.20;;;1.45;;
54139;SDS011;40046;53.254;5.900;2023-06-22T13:55:28;5.32;;;1.15;;
54139;SDS011;40046;53.254;5.900;2023-06-22T13:57:54;3.17;;;1.15;;
54139;SDS011;40046;53.254;5.900;2023-06-22T14:00:20;4.10;;;1.42;;
54139;SDS011;40046;53.254;5.900;2023-06-22T14:02:46;2.15;;;1.20;;
54139;SDS011;40046;53.254;5.900;2023-06-22T14:05:12;4.25;;;1.52;;
54139;SDS011;40046;53.254;5.900;2023-06-22T14:07:39;5.63;;;2.00;;
54139;SDS011;40046;53.254;5.900;2023-06-22T14:10:05;3.08;;;1.63;;
54139;SDS011;40046;53.254;5.900;2023-06-22T14:12:31;6.93;;;2.53;;
54139;SDS011;40046;53.254;5.900;2023-06-22T14:14:57;7.13;;;2.67;;
54139;SDS011;40046;53.254;5.900;2023-06-22T14:17:24;2.83;;;1.33;;
54139;SDS011;40046;53.254;5.900;2023-06-22T14:19:51;7.13;;;1.70;;
54139;SDS011;40046;53.254;5.900;2023-06-22T14:22:18;4.47;;;1.67;;
54139;SDS011;40046;53.254;5.900;2023-06-22T14:24:45;2.88;;;1.42;;
54139;SDS011;40046;53.254;5.900;2023-06-22T14:27:11;2.97;;;1.70;;
54139;SDS011;40046;53.254;5.900;2023-06-22T14:29:37;6.85;;;2.15;;
54139;SDS011;40046;53.254;5.900;2023-06-22T14:32:04;4.15;;;1.73;;
54139;SDS011;40046;53.254;5.900;2023-06-22T14:34:32;6.63;;;3.92;;